Flight Track Log - Related Links

Times and Time Zones

All times are in EDT time to prevent confusion due to time zone crossing. See the AEA76 flight status page for this flight to view local times or setup timezone preferences in your user account.

Time Position Orientation Groundspeed Altitude Reporting Facility
EDT Latitude Longitude Course Direction KTS MPH feet Rate Location/Type
Sat 11:28:48 AM -12.0480 -77.1020 164° South 177 204 1,100  Level FlightAware ADS-B
Sat 11:28:55 AM -12.0530 -77.1010 169° South 178 205 1,400 2,000 Climbing FlightAware ADS-B
Sat 11:29:18 AM -12.0720 -77.1080 200° South 177 204 2,100 1,886 Climbing FlightAware ADS-B
Sat 11:29:30 AM -12.0800 -77.1120 206° Southwest 174 200 2,500 1,313 Climbing FlightAware ADS-B
Sat 11:29:50 AM -12.0950 -77.1180 201° Southwest 185 213 2,800 1,091 Climbing FlightAware ADS-B
Sat 11:30:14 AM -12.1160 -77.1260 200° South 203 234 3,300 938 Climbing FlightAware ADS-B
Sat 11:30:22 AM -12.1240 -77.1290 200° South 211 243 3,300 667 Level FlightAware ADS-B
Sat 11:30:50 AM -12.1500 -77.1390 201° Southwest 238 274 3,700 1,000 Climbing FlightAware ADS-B
Sat 11:31:10 AM -12.1730 -77.1470 199° South 262 302 4,100 1,125 Climbing FlightAware ADS-B
Sat 11:31:22 AM -12.1880 -77.1510 195° South 276 318 4,300 1,000 Climbing FlightAware ADS-B
Sat 11:31:28 AM -12.1930 -77.1510 180° South 280 322 4,400 2,077 Climbing FlightAware ADS-B
Sat 11:31:48 AM -12.2200 -77.1410 160° South 288 331 5,200 2,400 Climbing FlightAware ADS-B
Sat 11:31:58 AM -12.2280 -77.1300 127° Southeast 285 328 5,600 2,333 Climbing FlightAware ADS-B
Sat 11:32:06 AM -12.2330 -77.1210 120° Southeast 283 326 5,900 1,875 Climbing FlightAware ADS-B
Sat 11:32:14 AM -12.2340 -77.1100 95° East 286 329 6,100 1,950 Climbing FlightAware ADS-B
Sat 11:32:46 AM -12.2170 -77.0720 65° Northeast 285 328 7,200 2,211 Climbing FlightAware ADS-B
Sat 11:32:52 AM -12.2110 -77.0680 33° Northeast 281 323 7,500 3,000 Climbing FlightAware ADS-B
Sat 11:33:02 AM -12.1990 -77.0630 22° Northeast 276 318 8,000 2,667 Climbing FlightAware ADS-B
Sat 11:33:10 AM -12.1890 -77.0610 11° North 274 315 8,300 1,800 Climbing FlightAware ADS-B
Sat 11:33:22 AM -12.1730 -77.0610 360° North 280 322 8,600 1,688 Climbing FlightAware ADS-B
Sat 11:33:42 AM -12.1470 -77.0630 356° North 286 329 9,200 2,172 Climbing FlightAware ADS-B
Sat 11:34:20 AM -12.0990 -77.0790 342° North 286 329 10,700 1,714 Climbing FlightAware ADS-B
Sat 11:34:52 AM -12.0610 -77.0980 334° Northwest 311 358 11,200 1,071 Climbing FlightAware ADS-B
Sat 11:35:16 AM -12.0260 -77.1110 340° North 334 384 11,700 1,286 Climbing FlightAware ADS-B
Sat 11:35:48 AM -11.9790 -77.0950 18° North 361 415 12,400 1,727 Climbing FlightAware ADS-B
Sat 11:36:22 AM -11.9300 -77.0620 33° Northeast 367 422 13,600 1,917 Climbing FlightAware ADS-B
Sat 11:37:00 AM -11.8760 -77.0270 32° Northeast 376 433 14,700 1,714 Climbing FlightAware ADS-B
Sat 11:37:32 AM -11.8270 -76.9940 33° Northeast 387 445 15,600 1,853 Climbing FlightAware ADS-B
Sat 11:38:08 AM -11.7750 -76.9580 34° Northeast 388 447 16,800 1,667 Climbing FlightAware ADS-B
Sat 11:38:44 AM -11.7210 -76.9190 35° Northeast 402 463 17,600 1,324 Climbing FlightAware ADS-B
Sat 11:39:16 AM -11.6700 -76.8820 35° Northeast 413 475 18,300 1,412 Climbing FlightAware ADS-B
Sat 11:39:52 AM -11.6140 -76.8420 35° Northeast 421 484 19,200 1,459 Climbing FlightAware ADS-B
Sat 11:40:30 AM -11.5530 -76.7990 35° Northeast 428 493 20,100 977 Climbing FlightAware ADS-B
Sat 11:41:18 AM -11.4810 -76.7490 34° Northeast 430 495 20,600 353 Climbing FlightAware ADS-B
Sat 11:41:55 AM -11.4290 -76.7130 34° Northeast 430 495 20,600  Level FlightAware ADS-B
Sat 11:42:32 AM -11.3770 -76.6770 34° Northeast 430 495 20,600  Level FlightAware ADS-B
Sat 11:43:09 AM -11.3250 -76.6420 33° Northeast 430 495 20,600  Level FlightAware ADS-B
Sat 11:43:58 AM -11.2570 -76.5950 34° Northeast 430 495 20,600  Level FlightAware ADS-B
Sat 11:44:32 AM -11.2090 -76.5620 34° Northeast 430 495 20,600 32 Level FlightAware ADS-B
Sat 11:47:00 AM -11.0144 -76.3501 47° Northeast  Level Estimated
Sat 11:48:00 AM -10.9354 -76.2643 47° Northeast  Level Estimated
Sat 11:49:00 AM -10.8564 -76.1785 47° Northeast  Level Estimated
Sat 11:50:00 AM -10.7774 -76.0927 47° Northeast  Level Estimated
Sat 11:51:00 AM -10.6984 -76.0070 47° Northeast  Level Estimated
Sat 11:52:00 AM -10.6194 -75.9214 47° Northeast  Level Estimated
Sat 11:53:00 AM -10.5403 -75.8358 47° Northeast  Level Estimated
Sat 11:54:00 AM -10.4612 -75.7502 47° Northeast  Level Estimated
Sat 11:55:00 AM -10.3821 -75.6647 47° Northeast  Level Estimated
Sat 11:56:00 AM -10.3030 -75.5792 47° Northeast  Level Estimated
Sat 11:57:00 AM -10.2238 -75.4938 47° Northeast  Level Estimated
Sat 11:58:00 AM -10.1446 -75.4084 47° Northeast  Level Estimated
Sat 11:59:00 AM -10.0654 -75.3230 47° Northeast  Level Estimated
Sat 12:00:00 PM -9.9862 -75.2377 47° Northeast  Level Estimated
Sat 12:01:00 PM -9.9070 -75.1525 47° Northeast  Level Estimated
Sat 12:02:00 PM -9.8277 -75.0673 47° Northeast  Level Estimated
Sat 12:03:00 PM -9.7484 -74.9821 47° Northeast  Level Estimated
Sat 12:04:00 PM -9.6691 -74.8969 47° Northeast  Level Estimated
Sat 12:05:00 PM -9.5898 -74.8118 47° Northeast  Level Estimated
Sat 12:06:00 PM -9.5104 -74.7268 47° Northeast  Level Estimated
Sat 12:07:00 PM -9.4311 -74.6417 47° Northeast  Level Estimated
Sat 12:08:00 PM -9.3517 -74.5568 47° Northeast  Level Estimated
Sat 12:09:00 PM -9.2723 -74.4718 47° Northeast  Level Estimated
Sat 12:10:00 PM -9.1928 -74.3869 47° Northeast  Level Estimated
Sat 12:11:00 PM -9.1134 -74.3020 47° Northeast  Level Estimated
Sat 12:12:00 PM -9.0339 -74.2172 47° Northeast  Level Estimated
Sat 12:13:00 PM -8.9544 -74.1324 47° Northeast  Level Estimated
Sat 12:14:00 PM -8.8749 -74.0477 46° Northeast  Level Estimated
Sat 12:15:00 PM -8.7954 -73.9630 46° Northeast  Level Estimated
Sat 12:16:00 PM -8.7158 -73.8783 46° Northeast  Level Estimated
Sat 12:17:00 PM -8.6363 -73.7936 46° Northeast  Level Estimated
Sat 12:18:00 PM -8.5567 -73.7090 46° Northeast  Level Estimated
Sat 12:19:00 PM -8.4771 -73.6244 46° Northeast  Level Estimated
Sat 12:20:00 PM -8.3975 -73.5399 46° Northeast  Level Estimated
Sat 12:21:00 PM -8.3178 -73.4554 46° Northeast  Level Estimated
Sat 12:22:00 PM -8.2382 -73.3709 46° Northeast  Level Estimated
Sat 12:23:00 PM -8.1585 -73.2865 46° Northeast  Level Estimated
Sat 12:24:00 PM -8.0788 -73.2021 46° Northeast  Level Estimated
Sat 12:25:00 PM -7.9991 -73.1177 46° Northeast  Level Estimated
Sat 12:26:00 PM -7.9194 -73.0334 46° Northeast  Level Estimated
Sat 12:27:00 PM -7.8396 -72.9491 46° Northeast  Level Estimated
Sat 12:28:00 PM -7.7599 -72.8648 46° Northeast  Level Estimated
Sat 12:29:00 PM -7.6801 -72.7805 46° Northeast  Level Estimated
Sat 12:30:00 PM -7.6003 -72.6963 46° Northeast  Level Estimated
Sat 12:31:00 PM -7.5205 -72.6122 46° Northeast  Level Estimated
Sat 12:32:00 PM -7.4406 -72.5280 46° Northeast  Level Estimated
Sat 12:33:00 PM -7.3608 -72.4439 46° Northeast  Level Estimated
Sat 12:34:00 PM -7.2809 -72.3598 46° Northeast  Level Estimated
Sat 12:35:00 PM -7.2011 -72.2757 46° Northeast  Level Estimated
Sat 12:36:00 PM -7.1212 -72.1917 46° Northeast  Level Estimated
Sat 12:37:00 PM -7.0413 -72.1077 46° Northeast  Level Estimated
Sat 12:38:00 PM -6.9614 -72.0237 46° Northeast  Level Estimated
Sat 12:39:00 PM -6.8814 -71.9398 46° Northeast  Level Estimated
Sat 12:40:00 PM -6.8015 -71.8559 46° Northeast  Level Estimated
Sat 12:41:00 PM -6.7215 -71.7720 46° Northeast  Level Estimated
Sat 12:42:00 PM -6.6415 -71.6881 46° Northeast  Level Estimated
Sat 12:43:00 PM -6.5616 -71.6043 46° Northeast  Level Estimated
Sat 12:44:00 PM -6.4816 -71.5205 46° Northeast  Level Estimated
Sat 12:45:00 PM -6.4015 -71.4368 46° Northeast  Level Estimated
Sat 12:46:00 PM -6.3215 -71.3530 46° Northeast  Level Estimated
Sat 12:47:00 PM -6.2414 -71.2693 46° Northeast  Level Estimated
Sat 12:48:00 PM -6.1614 -71.1856 46° Northeast  Level Estimated
Sat 12:49:00 PM -6.0813 -71.1019 46° Northeast  Level Estimated
Sat 12:50:00 PM -6.0012 -71.0183 46° Northeast  Level Estimated
Sat 12:51:00 PM -5.9211 -70.9346 46° Northeast  Level Estimated
Sat 12:52:00 PM -5.8410 -70.8510 46° Northeast  Level Estimated
Sat 12:53:00 PM -5.7609 -70.7675 46° Northeast  Level Estimated
Sat 12:54:00 PM -5.6808 -70.6839 46° Northeast  Level Estimated
Sat 12:55:00 PM -5.6006 -70.6004 46° Northeast  Level Estimated
Sat 12:56:00 PM -5.5205 -70.5169 46° Northeast  Level Estimated
Sat 12:57:00 PM -5.4403 -70.4334 46° Northeast  Level Estimated
Sat 12:58:00 PM -5.3601 -70.3500 46° Northeast  Level Estimated
Sat 12:59:00 PM -5.2799 -70.2665 46° Northeast  Level Estimated
Sat 01:00:00 PM -5.1997 -70.1831 46° Northeast  Level Estimated
Sat 01:01:00 PM -5.1195 -70.0997 46° Northeast  Level Estimated
Sat 01:02:00 PM -5.0393 -70.0163 46° Northeast  Level Estimated
Sat 01:03:00 PM -4.9591 -69.9330 46° Northeast  Level Estimated
Sat 01:04:00 PM -4.8788 -69.8496 46° Northeast  Level Estimated
Sat 01:05:00 PM -4.7985 -69.7663 46° Northeast  Level Estimated
Sat 01:06:00 PM -4.7183 -69.6831 46° Northeast  Level Estimated
Sat 01:07:00 PM -4.6380 -69.5998 46° Northeast  Level Estimated
Sat 01:08:00 PM -4.5577 -69.5165 46° Northeast  Level Estimated
Sat 01:09:00 PM -4.4774 -69.4333 46° Northeast  Level Estimated
Sat 01:10:00 PM -4.3971 -69.3501 46° Northeast  Level Estimated
Sat 01:11:00 PM -4.3168 -69.2669 46° Northeast  Level Estimated
Sat 01:12:00 PM -4.2365 -69.1837 46° Northeast  Level Estimated
Sat 01:13:00 PM -4.1561 -69.1005 46° Northeast  Level Estimated
Sat 01:14:00 PM -4.0758 -69.0174 46° Northeast  Level Estimated
Sat 01:15:00 PM -3.9954 -68.9342 46° Northeast  Level Estimated
Sat 01:16:00 PM -3.9151 -68.8511 46° Northeast  Level Estimated
Sat 01:17:00 PM -3.8347 -68.7680 46° Northeast  Level Estimated
Sat 01:18:00 PM -3.7543 -68.6849 46° Northeast  Level Estimated
Sat 01:19:00 PM -3.6740 -68.6019 46° Northeast  Level Estimated
Sat 01:20:00 PM -3.5936 -68.5188 46° Northeast  Level Estimated
Sat 01:21:00 PM -3.5132 -68.4358 46° Northeast  Level Estimated
Sat 01:22:00 PM -3.4328 -68.3528 46° Northeast  Level Estimated
Sat 01:23:00 PM -3.3524 -68.2697 46° Northeast  Level Estimated
Sat 01:24:00 PM -3.2719 -68.1867 46° Northeast  Level Estimated
Sat 01:25:00 PM -3.1915 -68.1038 46° Northeast  Level Estimated
Sat 01:26:00 PM -3.1111 -68.0208 46° Northeast  Level Estimated
Sat 01:27:00 PM -3.0306 -67.9378 46° Northeast  Level Estimated
Sat 01:28:00 PM -2.9502 -67.8549 46° Northeast  Level Estimated
Sat 01:29:00 PM -2.8697 -67.7719 46° Northeast  Level Estimated
Sat 01:30:00 PM -2.7893 -67.6890 46° Northeast  Level Estimated
Sat 01:31:00 PM -2.7088 -67.6061 46° Northeast  Level Estimated
Sat 01:32:00 PM -2.6284 -67.5232 46° Northeast  Level Estimated
Sat 01:33:00 PM -2.5479 -67.4403 46° Northeast  Level Estimated
Sat 01:34:00 PM -2.4674 -67.3575 46° Northeast  Level Estimated
Sat 01:35:00 PM -2.3869 -67.2746 46° Northeast  Level Estimated
Sat 01:36:00 PM -2.3064 -67.1917 46° Northeast  Level Estimated
Sat 01:37:00 PM -2.2259 -67.1089 46° Northeast  Level Estimated
Sat 01:38:00 PM -2.1454 -67.0260 46° Northeast  Level Estimated
Sat 01:39:00 PM -2.0649 -66.9432 46° Northeast  Level Estimated
Sat 01:40:00 PM -1.9844 -66.8604 46° Northeast  Level Estimated
Sat 01:41:00 PM -1.9039 -66.7776 46° Northeast  Level Estimated
Sat 01:42:00 PM -1.8234 -66.6947 46° Northeast  Level Estimated
Sat 01:43:00 PM -1.7429 -66.6120 46° Northeast  Level Estimated
Sat 01:44:00 PM -1.6624 -66.5292 46° Northeast  Level Estimated
Sat 01:45:00 PM -1.5818 -66.4464 46° Northeast  Level Estimated
Sat 01:46:00 PM -1.5013 -66.3636 46° Northeast  Level Estimated
Sat 01:47:00 PM -1.4208 -66.2808 46° Northeast  Level Estimated
Sat 01:48:00 PM -1.3402 -66.1981 46° Northeast  Level Estimated
Sat 01:49:00 PM -1.2597 -66.1153 46° Northeast  Level Estimated
Sat 01:50:00 PM -1.1791 -66.0325 46° Northeast  Level Estimated
Sat 01:51:00 PM -1.0986 -65.9498 46° Northeast  Level Estimated
Sat 01:52:00 PM -1.0180 -65.8670 46° Northeast  Level Estimated
Sat 01:53:00 PM -0.9375 -65.7843 46° Northeast  Level Estimated
Sat 01:54:00 PM -0.8569 -65.7016 46° Northeast  Level Estimated
Sat 01:55:00 PM -0.7764 -65.6188 46° Northeast  Level Estimated
Sat 01:56:00 PM -0.6959 -65.5361 46° Northeast  Level Estimated
Sat 01:57:00 PM -0.6153 -65.4533 46° Northeast  Level Estimated
Sat 01:58:00 PM -0.5347 -65.3706 46° Northeast  Level Estimated
Sat 01:59:00 PM -0.4542 -65.2879 46° Northeast  Level Estimated
Sat 02:00:00 PM -0.3736 -65.2052 46° Northeast  Level Estimated
Sat 02:01:00 PM -0.2930 -65.1225 46° Northeast  Level Estimated
Sat 02:02:00 PM -0.2125 -65.0397 46° Northeast  Level Estimated
Sat 02:03:00 PM -0.1319 -64.9570 46° Northeast  Level Estimated
Sat 02:04:00 PM -0.0514 -64.8743 46° Northeast  Level Estimated
Sat 02:05:00 PM 0.0292 -64.7916 46° Northeast  Level Estimated
Sat 02:06:00 PM 0.1098 -64.7088 46° Northeast  Level Estimated
Sat 02:07:00 PM 0.1903 -64.6261 46° Northeast  Level Estimated
Sat 02:08:00 PM 0.2709 -64.5434 46° Northeast  Level Estimated
Sat 02:09:00 PM 0.3514 -64.4607 46° Northeast  Level Estimated
Sat 02:10:00 PM 0.4320 -64.3780 46° Northeast  Level Estimated
Sat 02:11:00 PM 0.5125 -64.2952 46° Northeast  Level Estimated
Sat 02:12:00 PM 0.5931 -64.2125 46° Northeast  Level Estimated
Sat 02:13:00 PM 0.6737 -64.1298 46° Northeast  Level Estimated
Sat 02:14:00 PM 0.7542 -64.0471 46° Northeast  Level Estimated
Sat 02:15:00 PM 0.8348 -63.9643 46° Northeast  Level Estimated
Sat 02:16:00 PM 0.9153 -63.8816 46° Northeast  Level Estimated
Sat 02:17:00 PM 0.9959 -63.7988 46° Northeast  Level Estimated
Sat 02:18:00 PM 1.0764 -63.7161 46° Northeast  Level Estimated
Sat 02:19:00 PM 1.1570 -63.6333 46° Northeast  Level Estimated
Sat 02:20:00 PM 1.2375 -63.5506 46° Northeast  Level Estimated
Sat 02:21:00 PM 1.3181 -63.4678 46° Northeast  Level Estimated
Sat 02:22:00 PM 1.3986 -63.3850 46° Northeast  Level Estimated
Sat 02:23:00 PM 1.4791 -63.3023 46° Northeast  Level Estimated
Sat 02:24:00 PM 1.5596 -63.2195 46° Northeast  Level Estimated
Sat 02:25:00 PM 1.6402 -63.1367 46° Northeast  Level Estimated
Sat 02:26:00 PM 1.7207 -63.0539 46° Northeast  Level Estimated
Sat 02:27:00 PM 1.8012 -62.9711 46° Northeast  Level Estimated
Sat 02:28:00 PM 1.8817 -62.8883 46° Northeast  Level Estimated
Sat 02:29:00 PM 1.9622 -62.8055 46° Northeast  Level Estimated
Sat 02:30:00 PM 2.0428 -62.7227 46° Northeast  Level Estimated
Sat 02:31:00 PM 2.1233 -62.6399 46° Northeast  Level Estimated
Sat 02:32:00 PM 2.2038 -62.5570 46° Northeast  Level Estimated
Sat 02:33:00 PM 2.2843 -62.4742 46° Northeast  Level Estimated
Sat 02:34:00 PM 2.3648 -62.3913 46° Northeast  Level Estimated
Sat 02:35:00 PM 2.4453 -62.3084 46° Northeast  Level Estimated
Sat 02:36:00 PM 2.5257 -62.2256 46° Northeast  Level Estimated
Sat 02:37:00 PM 2.6062 -62.1427 46° Northeast  Level Estimated
Sat 02:38:00 PM 2.6867 -62.0598 46° Northeast  Level Estimated
Sat 02:39:00 PM 2.7671 -61.9768 46° Northeast  Level Estimated
Sat 02:40:00 PM 2.8476 -61.8939 46° Northeast  Level Estimated
Sat 02:41:00 PM 2.9281 -61.8110 46° Northeast  Level Estimated
Sat 02:42:00 PM 3.0085 -61.7281 46° Northeast  Level Estimated
Sat 02:43:00 PM 3.0889 -61.6451 46° Northeast  Level Estimated
Sat 02:44:00 PM 3.1694 -61.5621 46° Northeast  Level Estimated
Sat 02:45:00 PM 3.2498 -61.4792 46° Northeast  Level Estimated
Sat 02:46:00 PM 3.3302 -61.3962 46° Northeast  Level Estimated
Sat 02:47:00 PM 3.4106 -61.3132 46° Northeast  Level Estimated
Sat 02:48:00 PM 3.4911 -61.2301 46° Northeast  Level Estimated
Sat 02:49:00 PM 3.5714 -61.1471 46° Northeast  Level Estimated
Sat 02:50:00 PM 3.6518 -61.0640 46° Northeast  Level Estimated
Sat 02:51:00 PM 3.7322 -60.9810 46° Northeast  Level Estimated
Sat 02:52:00 PM 3.8126 -60.8979 46° Northeast  Level Estimated
Sat 02:53:00 PM 3.8930 -60.8148 46° Northeast  Level Estimated
Sat 02:54:00 PM 3.9733 -60.7317 46° Northeast  Level Estimated
Sat 02:55:00 PM 4.0537 -60.6486 46° Northeast  Level Estimated
Sat 02:56:00 PM 4.1340 -60.5654 46° Northeast  Level Estimated
Sat 02:57:00 PM 4.2144 -60.4823 46° Northeast  Level Estimated
Sat 02:58:00 PM 4.2947 -60.3991 46° Northeast  Level Estimated
Sat 02:59:00 PM 4.3750 -60.3159 46° Northeast  Level Estimated
Sat 03:00:00 PM 4.4553 -60.2327 46° Northeast  Level Estimated
Sat 03:01:00 PM 4.5356 -60.1494 46° Northeast  Level Estimated
Sat 03:02:00 PM 4.6159 -60.0662 46° Northeast  Level Estimated
Sat 03:03:00 PM 4.6962 -59.9829 46° Northeast  Level Estimated
Sat 03:04:00 PM 4.7765 -59.8996 46° Northeast  Level Estimated
Sat 03:05:00 PM 4.8567 -59.8163 46° Northeast  Level Estimated
Sat 03:06:00 PM 4.9370 -59.7330 46° Northeast  Level Estimated
Sat 03:07:00 PM 5.0172 -59.6497 46° Northeast  Level Estimated
Sat 03:08:00 PM 5.0974 -59.5663 46° Northeast  Level Estimated
Sat 03:09:00 PM 5.1776 -59.4829 46° Northeast  Level Estimated
Sat 03:10:00 PM 5.2579 -59.3995 46° Northeast  Level Estimated
Sat 03:11:00 PM 5.3381 -59.3161 46° Northeast  Level Estimated
Sat 03:12:00 PM 5.4182 -59.2326 46° Northeast  Level Estimated
Sat 03:13:00 PM 5.4984 -59.1491 46° Northeast  Level Estimated
Sat 03:14:00 PM 5.5786 -59.0656 46° Northeast  Level Estimated
Sat 03:15:00 PM 5.6587 -58.9821 46° Northeast  Level Estimated
Sat 03:16:00 PM 5.7389 -58.8986 46° Northeast  Level Estimated
Sat 03:17:00 PM 5.8190 -58.8150 46° Northeast  Level Estimated
Sat 03:18:00 PM 5.8991 -58.7314 46° Northeast  Level Estimated
Sat 03:19:00 PM 5.9792 -58.6478 46° Northeast  Level Estimated
Sat 03:20:00 PM 6.0593 -58.5641 46° Northeast  Level Estimated
Sat 03:21:00 PM 6.1394 -58.4805 46° Northeast  Level Estimated
Sat 03:22:00 PM 6.2194 -58.3968 46° Northeast  Level Estimated
Sat 03:23:00 PM 6.2995 -58.3131 46° Northeast  Level Estimated
Sat 03:24:00 PM 6.3795 -58.2293 46° Northeast  Level Estimated
Sat 03:25:00 PM 6.4595 -58.1456 46° Northeast  Level Estimated
Sat 03:26:00 PM 6.5395 -58.0618 46° Northeast  Level Estimated
Sat 03:27:00 PM 6.6195 -57.9780 46° Northeast  Level Estimated
Sat 03:28:00 PM 6.6995 -57.8941 46° Northeast  Level Estimated
Sat 03:29:00 PM 6.7795 -57.8102 46° Northeast  Level Estimated
Sat 03:30:00 PM 6.8594 -57.7263 46° Northeast  Level Estimated
Sat 03:31:00 PM 6.9394 -57.6424 46° Northeast  Level Estimated
Sat 03:32:00 PM 7.0566 -57.5193 46° Northeast  Level Estimated
Sat 03:33:00 PM 7.1737 -57.3961 46° Northeast  Level Estimated
Sat 03:34:00 PM 7.2908 -57.2729 46° Northeast  Level Estimated
Sat 03:35:00 PM 7.4079 -57.1496 46° Northeast  Level Estimated
Sat 03:36:00 PM 7.5249 -57.0262 46° Northeast  Level Estimated
Sat 03:37:00 PM 7.6419 -56.9028 46° Northeast  Level Estimated
Sat 03:38:00 PM 7.7589 -56.7793 46° Northeast  Level Estimated
Sat 03:39:00 PM 7.8759 -56.6557 46° Northeast  Level Estimated
Sat 03:40:00 PM 7.9928 -56.5321 46° Northeast  Level Estimated
Sat 03:41:00 PM 8.1096 -56.4084 46° Northeast  Level Estimated
Sat 03:42:00 PM 8.2264 -56.2846 46° Northeast  Level Estimated
Sat 03:43:00 PM 8.3432 -56.1607 46° Northeast  Level Estimated
Sat 03:44:00 PM 8.4600 -56.0368 46° Northeast  Level Estimated
Sat 03:45:00 PM 8.5767 -55.9128 46° Northeast  Level Estimated
Sat 03:46:00 PM 8.6934 -55.7887 46° Northeast  Level Estimated
Sat 03:47:00 PM 8.8100 -55.6645 46° Northeast  Level Estimated
Sat 03:48:00 PM 8.9266 -55.5403 46° Northeast  Level Estimated
Sat 03:49:00 PM 9.0431 -55.4160 46° Northeast  Level Estimated
Sat 03:50:00 PM 9.1596 -55.2916 47° Northeast  Level Estimated
Sat 03:51:00 PM 9.2761 -55.1671 47° Northeast  Level Estimated
Sat 03:52:00 PM 9.3925 -55.0425 47° Northeast  Level Estimated
Sat 03:53:00 PM 9.5089 -54.9179 47° Northeast  Level Estimated
Sat 03:54:00 PM 9.6253 -54.7932 47° Northeast  Level Estimated
Sat 03:55:00 PM 9.7416 -54.6684 47° Northeast  Level Estimated
Sat 03:56:00 PM 9.8578 -54.5434 47° Northeast  Level Estimated
Sat 03:57:00 PM 9.9740 -54.4185 47° Northeast  Level Estimated
Sat 03:58:00 PM 10.0901 -54.2934 47° Northeast  Level Estimated
Sat 03:59:00 PM 10.2063 -54.1682 47° Northeast  Level Estimated
Sat 04:00:00 PM 10.3223 -54.0429 47° Northeast  Level Estimated
Sat 04:01:00 PM 10.4383 -53.9176 47° Northeast  Level Estimated
Sat 04:02:00 PM 10.5543 -53.7921 47° Northeast  Level Estimated
Sat 04:03:00 PM 10.6702 -53.6666 47° Northeast  Level Estimated
Sat 04:04:00 PM 10.7861 -53.5410 47° Northeast  Level Estimated
Sat 04:05:00 PM 10.9019 -53.4152 47° Northeast  Level Estimated
Sat 04:06:00 PM 11.0176 -53.2894 47° Northeast  Level Estimated
Sat 04:07:00 PM 11.1333 -53.1635 47° Northeast  Level Estimated
Sat 04:08:00 PM 11.2490 -53.0374 47° Northeast  Level Estimated
Sat 04:09:00 PM 11.3646 -52.9113 47° Northeast  Level Estimated
Sat 04:10:00 PM 11.4802 -52.7851 47° Northeast  Level Estimated
Sat 04:11:00 PM 11.5956 -52.6587 47° Northeast  Level Estimated
Sat 04:12:00 PM 11.7111 -52.5323 47° Northeast  Level Estimated
Sat 04:13:00 PM 11.8265 -52.4058 47° Northeast  Level Estimated
Sat 04:14:00 PM 11.9418 -52.2791 47° Northeast  Level Estimated
Sat 04:15:00 PM 12.0571 -52.1523 47° Northeast  Level Estimated
Sat 04:16:00 PM 12.1723 -52.0255 47° Northeast  Level Estimated
Sat 04:17:00 PM 12.2874 -51.8985 47° Northeast  Level Estimated
Sat 04:18:00 PM 12.4025 -51.7714 47° Northeast  Level Estimated
Sat 04:19:00 PM 12.5176 -51.6442 47° Northeast  Level Estimated
Sat 04:20:00 PM 12.6326 -51.5169 47° Northeast  Level Estimated
Sat 04:21:00 PM 12.7475 -51.3894 47° Northeast  Level Estimated
Sat 04:22:00 PM 12.8623 -51.2619 47° Northeast  Level Estimated
Sat 04:23:00 PM 12.9771 -51.1342 47° Northeast  Level Estimated
Sat 04:24:00 PM 13.0919 -51.0064 47° Northeast  Level Estimated
Sat 04:25:00 PM 13.2065 -50.8785 47° Northeast  Level Estimated
Sat 04:26:00 PM 13.3211 -50.7505 47° Northeast  Level Estimated
Sat 04:27:00 PM 13.4357 -50.6224 47° Northeast  Level Estimated
Sat 04:28:00 PM 13.5502 -50.4941 47° Northeast  Level Estimated
Sat 04:29:00 PM 13.6646 -50.3657 47° Northeast  Level Estimated
Sat 04:30:00 PM 13.7789 -50.2372 47° Northeast  Level Estimated
Sat 04:31:00 PM 13.8932 -50.1086 48° Northeast  Level Estimated
Sat 04:32:00 PM 14.0074 -49.9798 48° Northeast  Level Estimated
Sat 04:33:00 PM 14.1215 -49.8509 48° Northeast  Level Estimated
Sat 04:34:00 PM 14.2356 -49.7219 48° Northeast  Level Estimated
Sat 04:35:00 PM 14.3496 -49.5927 48° Northeast  Level Estimated
Sat 04:36:00 PM 14.4636 -49.4634 48° Northeast  Level Estimated
Sat 04:37:00 PM 14.5774 -49.3340 48° Northeast  Level Estimated
Sat 04:38:00 PM 14.6912 -49.2044 48° Northeast  Level Estimated
Sat 04:39:00 PM 14.8050 -49.0747 48° Northeast  Level Estimated
Sat 04:40:00 PM 14.9186 -48.9449 48° Northeast  Level Estimated
Sat 04:41:00 PM 15.0322 -48.8150 48° Northeast  Level Estimated
Sat 04:42:00 PM 15.1457 -48.6849 48° Northeast  Level Estimated
Sat 04:43:00 PM 15.2591 -48.5546 48° Northeast  Level Estimated
Sat 04:44:00 PM 15.3725 -48.4243 48° Northeast  Level Estimated
Sat 04:45:00 PM 15.4858 -48.2937 48° Northeast  Level Estimated
Sat 04:46:00 PM 15.5990 -48.1631 48° Northeast  Level Estimated
Sat 04:47:00 PM 15.7121 -48.0322 48° Northeast  Level Estimated
Sat 04:48:00 PM 15.8251 -47.9013 48° Northeast  Level Estimated
Sat 04:49:00 PM 15.9381 -47.7702 48° Northeast  Level Estimated
Sat 04:50:00 PM 16.0510 -47.6390 48° Northeast  Level Estimated
Sat 04:51:00 PM 16.1638 -47.5075 48° Northeast  Level Estimated
Sat 04:52:00 PM 16.2765 -47.3760 48° Northeast  Level Estimated
Sat 04:53:00 PM 16.3892 -47.2443 48° Northeast  Level Estimated
Sat 04:54:00 PM 16.5017 -47.1124 48° Northeast  Level Estimated
Sat 04:55:00 PM 16.6142 -46.9804 48° Northeast  Level Estimated
Sat 04:56:00 PM 16.7266 -46.8483 48° Northeast  Level Estimated
Sat 04:57:00 PM 16.8389 -46.7160 48° Northeast  Level Estimated
Sat 04:58:00 PM 16.9511 -46.5835 48° Northeast  Level Estimated
Sat 04:59:00 PM 17.0633 -46.4509 48° Northeast  Level Estimated
Sat 05:00:00 PM 17.1753 -46.3181 49° Northeast  Level Estimated
Sat 05:01:00 PM 17.2873 -46.1851 49° Northeast  Level Estimated
Sat 05:02:00 PM 17.3992 -46.0520 49° Northeast  Level Estimated
Sat 05:03:00 PM 17.5110 -45.9187 49° Northeast  Level Estimated
Sat 05:04:00 PM 17.6227 -45.7853 49° Northeast  Level Estimated
Sat 05:05:00 PM 17.7343 -45.6517 49° Northeast  Level Estimated
Sat 05:06:00 PM 17.8458 -45.5179 49° Northeast  Level Estimated
Sat 05:07:00 PM 17.9572 -45.3840 49° Northeast  Level Estimated
Sat 05:08:00 PM 18.0686 -45.2499 49° Northeast  Level Estimated
Sat 05:09:00 PM 18.1798 -45.1156 49° Northeast  Level Estimated
Sat 05:10:00 PM 18.2910 -44.9812 49° Northeast  Level Estimated
Sat 05:11:00 PM 18.4020 -44.8465 49° Northeast  Level Estimated
Sat 05:12:00 PM 18.5130 -44.7117 49° Northeast  Level Estimated
Sat 05:13:00 PM 18.6239 -44.5768 49° Northeast  Level Estimated
Sat 05:14:00 PM 18.7346 -44.4416 49° Northeast  Level Estimated
Sat 05:15:00 PM 18.8453 -44.3063 49° Northeast  Level Estimated
Sat 05:16:00 PM 18.9559 -44.1708 49° Northeast  Level Estimated
Sat 05:17:00 PM 19.0664 -44.0351 49° Northeast  Level Estimated
Sat 05:18:00 PM 19.1768 -43.8993 49° Northeast  Level Estimated
Sat 05:19:00 PM 19.2870 -43.7632 49° Northeast  Level Estimated
Sat 05:20:00 PM 19.3972 -43.6270 49° Northeast  Level Estimated
Sat 05:21:00 PM 19.5073 -43.4906 49° Northeast  Level Estimated
Sat 05:22:00 PM 19.6173 -43.3540 49° Northeast  Level Estimated
Sat 05:23:00 PM 19.7271 -43.2172 50° Northeast  Level Estimated
Sat 05:24:00 PM 19.8369 -43.0802 50° Northeast  Level Estimated
Sat 05:25:00 PM 19.9466 -42.9431 50° Northeast  Level Estimated
Sat 05:26:00 PM 20.0561 -42.8057 50° Northeast  Level Estimated
Sat 05:27:00 PM 20.1656 -42.6682 50° Northeast  Level Estimated
Sat 05:28:00 PM 20.2749 -42.5304 50° Northeast  Level Estimated
Sat 05:29:00 PM 20.3842 -42.3925 50° Northeast  Level Estimated
Sat 05:30:00 PM 20.4933 -42.2543 50° Northeast  Level Estimated
Sat 05:31:00 PM 20.6023 -42.1160 50° Northeast  Level Estimated
Sat 05:32:00 PM 20.7112 -41.9775 50° Northeast  Level Estimated
Sat 05:33:00 PM 20.8200 -41.8388 50° Northeast  Level Estimated
Sat 05:34:00 PM 20.9287 -41.6999 50° Northeast  Level Estimated
Sat 05:35:00 PM 21.0373 -41.5607 50° Northeast  Level Estimated
Sat 05:36:00 PM 21.1458 -41.4214 50° Northeast  Level Estimated
Sat 05:37:00 PM 21.2541 -41.2819 50° Northeast  Level Estimated
Sat 05:38:00 PM 21.3623 -41.1422 50° Northeast  Level Estimated
Sat 05:39:00 PM 21.4705 -41.0022 50° Northeast  Level Estimated
Sat 05:40:00 PM 21.5785 -40.8621 50° Northeast  Level Estimated
Sat 05:41:00 PM 21.6863 -40.7217 50° Northeast  Level Estimated
Sat 05:42:00 PM 21.7941 -40.5811 50° Northeast  Level Estimated
Sat 05:43:00 PM 21.9017 -40.4403 50° Northeast  Level Estimated
Sat 05:44:00 PM 22.0093 -40.2994 51° Northeast  Level Estimated
Sat 05:45:00 PM 22.1167 -40.1581 51° Northeast  Level Estimated
Sat 05:46:00 PM 22.2239 -40.0167 51° Northeast  Level Estimated
Sat 05:47:00 PM 22.3311 -39.8751 51° Northeast  Level Estimated
Sat 05:48:00 PM 22.4381 -39.7332 51° Northeast  Level Estimated
Sat 05:49:00 PM 22.5450 -39.5911 51° Northeast  Level Estimated
Sat 05:50:00 PM 22.6518 -39.4488 51° Northeast  Level Estimated
Sat 05:51:00 PM 22.7585 -39.3063 51° Northeast  Level Estimated
Sat 05:52:00 PM 22.8650 -39.1636 51° Northeast  Level Estimated
Sat 05:53:00 PM 22.9715 -39.0206 51° Northeast  Level Estimated
Sat 05:54:00 PM 23.0777 -38.8774 51° Northeast  Level Estimated
Sat 05:55:00 PM 23.1839 -38.7340 51° Northeast  Level Estimated
Sat 05:56:00 PM 23.2899 -38.5904 51° Northeast  Level Estimated
Sat 05:57:00 PM 23.3958 -38.4465 51° Northeast  Level Estimated
Sat 05:58:00 PM 23.5016 -38.3024 51° Northeast  Level Estimated
Sat 05:59:00 PM 23.6072 -38.1581 51° Northeast  Level Estimated
Sat 06:00:00 PM 23.7127 -38.0135 51° Northeast  Level Estimated
Sat 06:01:00 PM 23.8180 -37.8687 51° Northeast  Level Estimated
Sat 06:02:00 PM 23.9232 -37.7237 52° Northeast  Level Estimated
Sat 06:03:00 PM 24.0283 -37.5784 52° Northeast  Level Estimated
Sat 06:04:00 PM 24.1333 -37.4329 52° Northeast  Level Estimated
Sat 06:05:00 PM 24.2381 -37.2872 52° Northeast  Level Estimated
Sat 06:06:00 PM 24.3428 -37.1412 52° Northeast  Level Estimated
Sat 06:07:00 PM 24.4473 -36.9949 52° Northeast  Level Estimated
Sat 06:08:00 PM 24.5517 -36.8485 52° Northeast  Level Estimated
Sat 06:09:00 PM 24.6559 -36.7017 52° Northeast  Level Estimated
Sat 06:10:00 PM 24.7600 -36.5548 52° Northeast  Level Estimated
Sat 06:11:00 PM 24.8640 -36.4076 52° Northeast  Level Estimated
Sat 06:12:00 PM 24.9678 -36.2601 52° Northeast  Level Estimated
Sat 06:13:00 PM 25.0715 -36.1124 52° Northeast  Level Estimated
Sat 06:14:00 PM 25.1750 -35.9645 52° Northeast  Level Estimated
Sat 06:15:00 PM 25.2784 -35.8163 52° Northeast  Level Estimated
Sat 06:16:00 PM 25.3816 -35.6678 52° Northeast  Level Estimated
Sat 06:17:00 PM 25.4847 -35.5191 52° Northeast  Level Estimated
Sat 06:18:00 PM 25.5876 -35.3701 53° Northeast  Level Estimated
Sat 06:19:00 PM 25.6904 -35.2209 53° Northeast  Level Estimated
Sat 06:20:00 PM 25.7930 -35.0714 53° Northeast  Level Estimated
Sat 06:21:00 PM 25.8955 -34.9217 53° Northeast  Level Estimated
Sat 06:22:00 PM 25.9978 -34.7717 53° Northeast  Level Estimated
Sat 06:23:00 PM 26.1000 -34.6214 53° Northeast  Level Estimated
Sat 06:24:00 PM 26.2020 -34.4709 53° Northeast  Level Estimated
Sat 06:25:00 PM 26.3039 -34.3201 53° Northeast  Level Estimated
Sat 06:26:00 PM 26.4055 -34.1691 53° Northeast  Level Estimated
Sat 06:27:00 PM 26.5071 -34.0177 53° Northeast  Level Estimated
Sat 06:28:00 PM 26.6085 -33.8661 53° Northeast  Level Estimated
Sat 06:29:00 PM 26.7097 -33.7143 53° Northeast  Level Estimated
Sat 06:30:00 PM 26.8107 -33.5622 53° Northeast  Level Estimated
Sat 06:31:00 PM 26.9116 -33.4098 53° Northeast  Level Estimated
Sat 06:32:00 PM 27.0123 -33.2571 53° Northeast  Level Estimated
Sat 06:33:00 PM 27.1129 -33.1042 54° Northeast  Level Estimated
Sat 06:34:00 PM 27.2133 -32.9510 54° Northeast  Level Estimated
Sat 06:35:00 PM 27.3135 -32.7975 54° Northeast  Level Estimated
Sat 06:36:00 PM 27.4136 -32.6437 54° Northeast  Level Estimated
Sat 06:37:00 PM 27.5135 -32.4896 54° Northeast  Level Estimated
Sat 06:38:00 PM 27.6132 -32.3353 54° Northeast  Level Estimated
Sat 06:39:00 PM 27.7127 -32.1807 54° Northeast  Level Estimated
Sat 06:40:00 PM 27.8121 -32.0258 54° Northeast  Level Estimated
Sat 06:41:00 PM 27.9113 -31.8706 54° Northeast  Level Estimated
Sat 06:42:00 PM 28.0103 -31.7152 54° Northeast  Level Estimated
Sat 06:43:00 PM 28.1092 -31.5594 54° Northeast  Level Estimated
Sat 06:44:00 PM 28.2079 -31.4034 54° Northeast  Level Estimated
Sat 06:45:00 PM 28.3064 -31.2471 54° Northeast  Level Estimated
Sat 06:46:00 PM 28.4047 -31.0905 54° Northeast  Level Estimated
Sat 06:47:00 PM 28.5028 -30.9336 55° Northeast  Level Estimated
Sat 06:48:00 PM 28.6008 -30.7764 55° Northeast  Level Estimated
Sat 06:49:00 PM 28.6986 -30.6189 55° Northeast  Level Estimated
Sat 06:50:00 PM 28.7962 -30.4611 55° Northeast  Level Estimated
Sat 06:51:00 PM 28.8936 -30.3030 55° Northeast  Level Estimated
Sat 06:52:00 PM 28.9908 -30.1446 55° Northeast  Level Estimated
Sat 06:53:00 PM 29.0879 -29.9860 55° Northeast  Level Estimated
Sat 06:54:00 PM 29.1847 -29.8270 55° Northeast  Level Estimated
Sat 06:55:00 PM 29.2814 -29.6677 55° Northeast  Level Estimated
Sat 06:56:00 PM 29.3779 -29.5082 55° Northeast  Level Estimated
Sat 06:57:00 PM 29.4742 -29.3483 55° Northeast  Level Estimated
Sat 06:58:00 PM 29.5703 -29.1881 55° Northeast  Level Estimated
Sat 06:59:00 PM 29.6662 -29.0276 55° Northeast  Level Estimated
Sat 07:00:00 PM 29.7619 -28.8668 56° Northeast  Level Estimated
Sat 07:01:00 PM 29.8574 -28.7057 56° Northeast  Level Estimated
Sat 07:02:00 PM 29.9527 -28.5443 56° Northeast  Level Estimated
Sat 07:03:00 PM 30.0479 -28.3826 56° Northeast  Level Estimated
Sat 07:04:00 PM 30.1428 -28.2206 56° Northeast  Level Estimated
Sat 07:05:00 PM 30.2375 -28.0583 56° Northeast  Level Estimated
Sat 07:06:00 PM 30.3321 -27.8956 56° Northeast  Level Estimated
Sat 07:07:00 PM 30.4264 -27.7327 56° Northeast  Level Estimated
Sat 07:08:00 PM 30.5205 -27.5694 56° Northeast  Level Estimated
Sat 07:09:00 PM 30.6144 -27.4058 56° Northeast  Level Estimated
Sat 07:10:00 PM 30.7081 -27.2419 56° Northeast  Level Estimated
Sat 07:11:00 PM 30.8016 -27.0777 56° Northeast  Level Estimated
Sat 07:12:00 PM 30.8949 -26.9131 57° Northeast  Level Estimated
Sat 07:13:00 PM 30.9880 -26.7482 57° Northeast  Level Estimated
Sat 07:14:00 PM 31.0809 -26.5830 57° Northeast  Level Estimated
Sat 07:15:00 PM 31.1736 -26.4175 57° Northeast  Level Estimated
Sat 07:16:00 PM 31.2660 -26.2517 57° Northeast  Level Estimated
Sat 07:17:00 PM 31.3583 -26.0855 57° Northeast  Level Estimated
Sat 07:18:00 PM 31.4503 -25.9191 57° Northeast  Level Estimated
Sat 07:19:00 PM 31.5421 -25.7522 57° Northeast  Level Estimated
Sat 07:20:00 PM 31.6337 -25.5851 57° Northeast  Level Estimated
Sat 07:21:00 PM 31.7251 -25.4176 57° Northeast  Level Estimated
Sat 07:22:00 PM 31.8162 -25.2498 57° Northeast  Level Estimated
Sat 07:23:00 PM 31.9072 -25.0817 57° Northeast  Level Estimated
Sat 07:24:00 PM 31.9979 -24.9132 58° Northeast  Level Estimated
Sat 07:25:00 PM 32.0884 -24.7444 58° Northeast  Level Estimated
Sat 07:26:00 PM 32.1787 -24.5753 58° Northeast  Level Estimated
Sat 07:27:00 PM 32.2687 -24.4058 58° Northeast  Level Estimated
Sat 07:28:00 PM 32.3585 -24.2360 58° Northeast  Level Estimated
Sat 07:29:00 PM 32.4481 -24.0659 58° Northeast  Level Estimated
Sat 07:30:00 PM 32.5375 -23.8954 58° Northeast  Level Estimated
Sat 07:31:00 PM 32.6266 -23.7246 58° Northeast  Level Estimated
Sat 07:32:00 PM 32.7155 -23.5534 58° Northeast  Level Estimated
Sat 07:33:00 PM 32.8042 -23.3819 58° Northeast  Level Estimated
Sat 07:34:00 PM 32.8926 -23.2101 58° Northeast  Level Estimated
Sat 07:35:00 PM 32.9808 -23.0379 59° Northeast  Level Estimated
Sat 07:36:00 PM 33.0688 -22.8654 59° Northeast  Level Estimated
Sat 07:37:00 PM 33.1565 -22.6925 59° Northeast  Level Estimated
Sat 07:38:00 PM 33.2440 -22.5193 59° Northeast  Level Estimated
Sat 07:39:00 PM 33.3312 -22.3457 59° Northeast  Level Estimated
Sat 07:40:00 PM 33.4182 -22.1718 59° Northeast  Level Estimated
Sat 07:41:00 PM 33.5050 -21.9975 59° Northeast  Level Estimated
Sat 07:42:00 PM 33.5915 -21.8229 59° Northeast  Level Estimated
Sat 07:43:00 PM 33.6777 -21.6479 59° Northeast  Level Estimated
Sat 07:44:00 PM 33.7638 -21.4726 59° Northeast  Level Estimated
Sat 07:45:00 PM 33.8495 -21.2970 60° Northeast  Level Estimated
Sat 07:46:00 PM 33.9351 -21.1210 60° Northeast  Level Estimated
Sat 07:47:00 PM 34.0203 -20.9446 60° Northeast  Level Estimated
Sat 07:48:00 PM 34.1054 -20.7679 60° Northeast  Level Estimated
Sat 07:49:00 PM 34.1901 -20.5908 60° Northeast  Level Estimated
Sat 07:50:00 PM 34.2746 -20.4133 60° Northeast  Level Estimated
Sat 07:51:00 PM 34.3589 -20.2355 60° Northeast  Level Estimated
Sat 07:52:00 PM 34.4429 -20.0574 60° Northeast  Level Estimated
Sat 07:53:00 PM 34.5266 -19.8789 60° Northeast  Level Estimated
Sat 07:54:00 PM 34.6101 -19.7000 60° Northeast  Level Estimated
Sat 07:55:00 PM 34.6933 -19.5208 61° Northeast  Level Estimated
Sat 07:56:00 PM 34.7762 -19.3412 61° Northeast  Level Estimated
Sat 07:57:00 PM 34.8589 -19.1612 61° Northeast  Level Estimated
Sat 07:58:00 PM 34.9413 -18.9809 61° Northeast  Level Estimated
Sat 07:59:00 PM 35.0235 -18.8003 61° Northeast  Level Estimated
Sat 08:00:00 PM 35.1054 -18.6192 61° Northeast  Level Estimated
Sat 08:01:00 PM 35.1870 -18.4378 61° Northeast  Level Estimated
Sat 08:02:00 PM 35.2684 -18.2561 61° Northeast  Level Estimated
Sat 08:03:00 PM 35.3494 -18.0739 61° Northeast  Level Estimated
Sat 08:04:00 PM 35.4302 -17.8915 61° Northeast  Level Estimated
Sat 08:05:00 PM 35.5107 -17.7086 62° Northeast  Level Estimated
Sat 08:06:00 PM 35.5910 -17.5254 62° Northeast  Level Estimated
Sat 08:07:00 PM 35.6710 -17.3418 62° Northeast  Level Estimated
Sat 08:08:00 PM 35.7507 -17.1578 62° Northeast  Level Estimated
Sat 08:09:00 PM 35.8301 -16.9735 62° Northeast  Level Estimated
Sat 08:10:00 PM 35.9092 -16.7888 62° Northeast  Level Estimated
Sat 08:11:00 PM 35.9880 -16.6037 62° Northeast  Level Estimated
Sat 08:12:00 PM 36.0666 -16.4183 62° Northeast  Level Estimated
Sat 08:13:00 PM 36.1449 -16.2325 62° Northeast  Level Estimated
Sat 08:14:00 PM 36.2229 -16.0463 63° Northeast  Level Estimated
Sat 08:15:00 PM 36.3006 -15.8598 63° Northeast  Level Estimated
Sat 08:16:00 PM 36.3780 -15.6729 63° Northeast  Level Estimated
Sat 08:17:00 PM 36.4551 -15.4856 63° Northeast  Level Estimated
Sat 08:18:00 PM 36.5319 -15.2979 63° Northeast  Level Estimated
Sat 08:19:00 PM 36.6084 -15.1099 63° Northeast  Level Estimated
Sat 08:20:00 PM 36.6847 -14.9215 63° Northeast  Level Estimated
Sat 08:21:00 PM 36.7606 -14.7327 63° Northeast  Level Estimated
Sat 08:22:00 PM 36.8362 -14.5435 63° Northeast  Level Estimated
Sat 08:23:00 PM 36.9116 -14.3540 64° Northeast  Level Estimated
Sat 08:24:00 PM 36.9866 -14.1641 64° Northeast  Level Estimated
Sat 08:25:00 PM 37.0613 -13.9738 64° Northeast  Level Estimated
Sat 08:26:00 PM 37.1357 -13.7832 64° Northeast  Level Estimated
Sat 08:27:00 PM 37.2099 -13.5922 64° Northeast  Level Estimated
Sat 08:28:00 PM 37.2837 -13.4008 64° Northeast  Level Estimated
Sat 08:29:00 PM 37.3572 -13.2090 64° Northeast  Level Estimated
Sat 08:30:00 PM 37.4304 -13.0169 64° Northeast  Level Estimated
Sat 08:31:00 PM 37.5033 -12.8243 64° Northeast  Level Estimated
Sat 08:32:00 PM 37.5758 -12.6314 65° Northeast  Level Estimated
Sat 08:33:00 PM 37.6481 -12.4382 65° Northeast  Level Estimated
Sat 08:34:00 PM 37.7200 -12.2445 65° Northeast  Level Estimated
Sat 08:35:00 PM 37.7916 -12.0505 65° Northeast  Level Estimated
Sat 08:36:00 PM 37.8629 -11.8561 65° Northeast  Level Estimated
Sat 08:37:00 PM 37.9339 -11.6613 65° Northeast  Level Estimated
Sat 08:38:00 PM 38.0046 -11.4662 65° Northeast  Level Estimated
Sat 08:39:00 PM 38.0749 -11.2706 65° Northeast  Level Estimated
Sat 08:40:00 PM 38.1449 -11.0747 66° East  Level Estimated
Sat 08:41:00 PM 38.2146 -10.8784 66° East  Level Estimated
Sat 08:42:00 PM 38.2840 -10.6818 66° East  Level Estimated
Sat 08:43:00 PM 38.3530 -10.4847 66° East  Level Estimated
Sat 08:44:00 PM 38.4217 -10.2873 66° East  Level Estimated
Sat 08:45:00 PM 38.4901 -10.0896 66° East  Level Estimated
Sat 08:46:00 PM 38.5581 -9.8914 66° East  Level Estimated
Sat 08:47:00 PM 38.6258 -9.6929 66° East  Level Estimated
Sat 08:48:00 PM 38.6932 -9.4940 66° East  Level Estimated
Sat 08:49:00 PM 38.7602 -9.2947 67° East  Level Estimated
Sat 08:50:00 PM 38.8269 -9.0950 67° East  Level Estimated
Sat 08:51:00 PM 38.8932 -8.8950 67° East  Level Estimated
Sat 08:52:00 PM 38.9593 -8.6946 67° East  Level Estimated
Sat 08:53:00 PM 39.0249 -8.4938 67° East  Level Estimated
Sat 08:54:00 PM 39.0902 -8.2927 67° East  Level Estimated
Sat 08:55:00 PM 39.1552 -8.0912 67° East  Level Estimated
Sat 08:56:00 PM 39.2198 -7.8893 67° East  Level Estimated
Sat 08:57:00 PM 39.2841 -7.6870 68° East  Level Estimated
Sat 08:58:00 PM 39.3480 -7.4844 68° East  Level Estimated
Sat 08:59:00 PM 39.4116 -7.2814 68° East  Level Estimated
Sat 09:00:00 PM 39.4748 -7.0780 68° East  Level Estimated
Sat 09:01:00 PM 39.5377 -6.8743 68° East  Level Estimated
Sat 09:02:00 PM 39.6002 -6.6702 68° East  Level Estimated
Sat 09:03:00 PM 39.6623 -6.4657 68° East  Level Estimated
Sat 09:04:00 PM 39.7241 -6.2609 69° East  Level Estimated
Sat 09:05:00 PM 39.7855 -6.0557 69° East  Level Estimated
Sat 09:06:00 PM 39.8466 -5.8501 69° East  Level Estimated
Sat 09:07:00 PM 39.9073 -5.6442 69° East  Level Estimated
Sat 09:08:00 PM 39.9677 -5.4379 69° East  Level Estimated
Sat 09:09:00 PM 40.0276 -5.2312 69° East  Level Estimated
Sat 09:10:00 PM 40.0872 -5.0242 69° East  Level Estimated
Sat 09:11:00 PM 40.1465 -4.8168 69° East  Level Estimated
Sat 09:12:00 PM 40.2053 -4.6090 70° East  Level Estimated
Sat 09:13:00 PM 40.2638 -4.4009 70° East  Level Estimated
Sat 09:14:00 PM 40.3219 -4.1925 70° East  Level Estimated
Sat 09:15:00 PM 40.3797 -3.9836 70° East  Level Estimated
Sat 09:16:00 PM 40.4371 -3.7744 70° East  Level Estimated
Sat 09:17:00 PM 40.4936 -3.5668 70° East  Level Estimated
Sat 09:18:00 PM 40.4936 -3.5668 217° Southwest  Level Estimated
Sat 09:19:00 PM 40.4936 -3.5668 217° Southwest  Level Estimated
Sat 09:20:00 PM 40.4936 -3.5668 217° Southwest  Level Estimated
Sat 09:21:00 PM 40.4936 -3.5668 217° Southwest  Level Estimated
Sat 09:22:00 PM 40.4936 -3.5668 217° Southwest  Level Estimated
Sat 09:23:00 PM 40.4936 -3.5668 217° Southwest  Level Estimated
Sat 09:24:00 PM 40.4936 -3.5668 217° Southwest  Level Estimated
Sat 09:25:00 PM 40.4936 -3.5668 217° Southwest  Level Estimated
Sat 09:26:00 PM 40.4936 -3.5668 217° Southwest  Level Estimated
Sat 09:27:00 PM 40.4936 -3.5668 217° Southwest  Level Estimated
Sat 09:28:00 PM 40.4936 -3.5668 217° Southwest  Level Estimated
Sat 09:29:00 PM 40.4936 -3.5668 217° Southwest  Level Estimated
Sat 09:30:00 PM 40.4936 -3.5668 217° Southwest  Level Estimated
Sat 09:31:00 PM 40.4936 -3.5668 217° Southwest  Level Estimated
Sat 09:32:00 PM 40.4936 -3.5668 217° Southwest  Level Estimated
Sat 09:33:00 PM 40.4936 -3.5668 217° Southwest  Level Estimated
Sat 09:34:00 PM 40.4936 -3.5668 217° Southwest  Level Estimated
Sat 09:35:00 PM 40.4936 -3.5668 217° Southwest  Level Estimated
Sat 09:36:00 PM 40.4936 -3.5668 217° Southwest  Level Estimated
Sat 09:37:00 PM 40.4936 -3.5668 217° Southwest  Level Estimated
Sat 09:38:00 PM 40.4936 -3.5668 217° Southwest  Level Estimated
Sat 09:39:00 PM 40.4936 -3.5668 217° Southwest  Level Estimated
Sat 09:40:00 PM 40.4936 -3.5668 217° Southwest  Level Estimated
Sat 09:41:00 PM 40.4936 -3.5668 217° Southwest  Level Estimated
Sat 09:42:00 PM 40.4936 -3.5668 217° Southwest  Level Estimated
Sat 09:43:00 PM 40.4936 -3.5668 217° Southwest  Level Estimated
Sat 09:44:00 PM 40.4936 -3.5668 217° Southwest  Level Estimated
Sat 09:45:00 PM 40.4936 -3.5668 217° Southwest  Level Estimated
Sat 09:46:00 PM 40.4936 -3.5668 217° Southwest  Level Estimated
Sat 09:47:00 PM 40.4936 -3.5668 217° Southwest  Level Estimated
Sat 09:47:37 PM 38.2050 -10.8370 217° Southwest 470 541 40,000  Level FlightAware ADS-B
Sat 09:48:12 PM 38.2410 -10.7500 62° Northeast 470 541 40,000  Level FlightAware ADS-B
Sat 09:48:52 PM 38.2800 -10.6550 62° Northeast 471 542 40,000  Level FlightAware ADS-B
Sat 09:49:22 PM 38.3100 -10.5800 63° Northeast 470 541 40,000  Level FlightAware ADS-B
Sat 09:49:57 PM 38.3470 -10.4910 62° Northeast 470 541 40,000  Level FlightAware ADS-B
Sat 09:50:32 PM 38.3810 -10.4080 62° Northeast 470 541 40,000  Level FlightAware ADS-B
Sat 09:51:12 PM 38.4200 -10.3090 63° Northeast 470 541 40,000  Level FlightAware ADS-B
Sat 09:51:42 PM 38.4500 -10.2350 63° Northeast 470 541 40,000  Level FlightAware ADS-B
Sat 09:52:17 PM 38.4860 -10.1460 63° Northeast 470 541 40,000  Level FlightAware ADS-B
Sat 09:52:52 PM 38.5200 -10.0610 63° Northeast 470 541 40,000  Level FlightAware ADS-B
Sat 09:53:27 PM 38.5550 -9.9730 63° Northeast 470 541 40,000  Level FlightAware ADS-B
Sat 09:54:02 PM 38.5910 -9.8880 62° Northeast 470 541 40,000  Level FlightAware ADS-B
Sat 09:54:37 PM 38.6270 -9.8020 62° Northeast 469 540 40,000  Level FlightAware ADS-B
Sat 09:55:17 PM 38.6660 -9.7070 62° Northeast 469 540 40,000  Level FlightAware ADS-B
Sat 09:55:47 PM 38.6960 -9.6320 63° Northeast 468 539 40,000  Level FlightAware ADS-B
Sat 09:56:22 PM 38.7320 -9.5450 62° Northeast 469 540 40,000  Level FlightAware ADS-B
Sat 09:56:58 PM 38.7670 -9.4600 62° Northeast 470 541 40,000  Level FlightAware ADS-B
Sat 09:57:37 PM 38.8070 -9.3600 63° Northeast 470 541 40,000  Level FlightAware ADS-B
Sat 09:58:07 PM 38.8370 -9.2880 62° Northeast 470 541 40,000  Level FlightAware ADS-B
Sat 09:58:42 PM 38.8730 -9.1990 63° Northeast 471 542 40,000  Level FlightAware ADS-B
Sat 09:59:22 PM 38.9100 -9.1040 63° Northeast 471 542 40,000  Level FlightAware ADS-B
Sat 09:59:52 PM 38.9370 -9.0290 65° Northeast 471 542 40,000  Level FlightAware ADS-B
Sat 10:00:27 PM 38.9680 -8.9420 65° Northeast 472 543 40,000  Level FlightAware ADS-B
Sat 10:01:02 PM 39.0030 -8.8460 65° Northeast 471 542 40,000  Level FlightAware ADS-B
Sat 10:01:37 PM 39.0350 -8.7580 65° Northeast 471 542 40,000  Level FlightAware ADS-B
Sat 10:02:12 PM 39.0680 -8.6690 64° Northeast 470 541 40,000  Level FlightAware ADS-B
Sat 10:02:47 PM 39.0990 -8.5830 65° Northeast 470 541 40,000  Level FlightAware ADS-B
Sat 10:03:27 PM 39.1360 -8.4790 65° Northeast 471 542 40,000  Level FlightAware ADS-B
Sat 10:03:57 PM 39.1640 -8.4030 65° Northeast 471 542 40,000  Level FlightAware ADS-B
Sat 10:04:37 PM 39.2030 -8.3030 63° Northeast 471 542 40,000  Level FlightAware ADS-B
Sat 10:05:17 PM 39.2440 -8.2040 62° Northeast 471 542 40,000  Level FlightAware ADS-B
Sat 10:05:52 PM 39.2780 -8.1200 62° Northeast 471 542 40,000  Level FlightAware ADS-B
Sat 10:06:27 PM 39.3150 -8.0290 62° Northeast 471 542 40,000  Level FlightAware ADS-B
Sat 10:07:07 PM 39.3490 -7.9250 67° East 472 543 40,000  Level FlightAware ADS-B
Sat 10:07:42 PM 39.3780 -7.8380 67° East 473 544 40,000  Level FlightAware ADS-B
Sat 10:08:17 PM 39.4070 -7.7470 68° East 474 545 40,000  Level FlightAware ADS-B
Sat 10:08:52 PM 39.4350 -7.6610 67° East 475 547 40,000  Level FlightAware ADS-B
Sat 10:09:27 PM 39.4660 -7.5620 68° East 476 548 40,000  Level FlightAware ADS-B
Sat 10:10:02 PM 39.4960 -7.4700 67° East 476 548 40,000  Level FlightAware ADS-B
Sat 10:10:37 PM 39.5250 -7.3770 68° East 478 550 40,000  Level FlightAware ADS-B
Sat 10:11:12 PM 39.5530 -7.2850 68° East 479 551 40,000  Level FlightAware ADS-B
Sat 10:11:47 PM 39.5790 -7.1920 70° East 479 551 40,000  Level FlightAware ADS-B
Sat 10:12:22 PM 39.6060 -7.0970 70° East 478 550 40,000  Level FlightAware ADS-B
Sat 10:12:57 PM 39.6320 -7.0030 70° East 478 550 40,000  Level FlightAware ADS-B
Sat 10:13:32 PM 39.6570 -6.9170 69° East 479 551 40,000  Level FlightAware ADS-B
Sat 10:14:10 PM 39.6890 -6.8040 70° East 480 552 40,000  Level FlightAware ADS-B
Sat 10:14:46 PM 39.7160 -6.7080 70° East 479 551 40,000  Level FlightAware ADS-B
Sat 10:15:18 PM 39.7410 -6.6190 70° East 479 551 40,000  Level FlightAware ADS-B
Sat 10:15:54 PM 39.7670 -6.5230 71° East 479 551 40,000  Level FlightAware ADS-B
Sat 10:16:30 PM 39.7910 -6.4240 72° East 481 554 40,000  Level FlightAware ADS-B
Sat 10:16:42 PM 39.7930 -6.3910 85° East 481 554 40,000  Level FlightAware ADS-B
Sat 10:17:18 PM 39.7940 -6.2880 89° East 482 555 40,000  Level FlightAware ADS-B
Sat 10:17:50 PM 39.7960 -6.1920 88° East 483 556 40,000 -185 Level FlightAware ADS-B
Sat 10:18:23 PM 39.7980 -6.1010 88° East 483 556 39,800 -1,865 Descending FlightAware ADS-B
Sat 10:19:04 PM 39.7990 -5.9780 89° East 499 574 37,700 -2,548 Descending FlightAware ADS-B
Sat 10:19:36 PM 39.8010 -5.8810 88° East 489 563 36,700 -2,239 Descending FlightAware ADS-B
Sat 10:20:11 PM 39.8020 -5.7810 89° East 490 564 35,200 -2,743 Descending FlightAware ADS-B
Sat 10:20:46 PM 39.8030 -5.6750 89° East 493 567 33,500 -2,743 Descending FlightAware ADS-B
Sat 10:21:21 PM 39.8040 -5.5720 89° East 487 560 32,000 -2,486 Descending FlightAware ADS-B
Sat 10:21:56 PM 39.8050 -5.4710 89° East 481 554 30,600 -2,229 Descending FlightAware ADS-B
Sat 10:22:31 PM 39.8060 -5.3720 89° East 470 541 29,400 -2,057 Descending FlightAware ADS-B
Sat 10:23:06 PM 39.8070 -5.2730 89° East 460 529 28,200 -1,971 Descending FlightAware ADS-B
Sat 10:23:41 PM 39.8080 -5.1790 89° East 452 520 27,100 -1,971 Descending FlightAware ADS-B
Sat 10:24:16 PM 39.8090 -5.0840 89° East 443 510 25,900 -2,057 Descending FlightAware ADS-B
Sat 10:24:51 PM 39.8090 -4.9910 90° East 437 503 24,700 -1,971 Descending FlightAware ADS-B
Sat 10:25:26 PM 39.8100 -4.9000 89° East 436 502 23,600 -1,971 Descending FlightAware ADS-B
Sat 10:26:01 PM 39.8280 -4.8130 75° East 430 495 22,400 -2,314 Descending FlightAware ADS-B
Sat 10:26:36 PM 39.8540 -4.7290 68° East 429 494 20,900 -2,743 Descending FlightAware ADS-B
Sat 10:27:11 PM 39.8790 -4.6470 68° East 436 502 19,200 -2,743 Descending FlightAware ADS-B
Sat 10:27:46 PM 39.8980 -4.5580 74° East 436 502 17,700 -2,314 Descending FlightAware ADS-B
Sat 10:28:21 PM 39.9210 -4.4700 71° East 426 490 16,500 -1,971 Descending FlightAware ADS-B
Sat 10:28:56 PM 39.9430 -4.3870 71° East 415 478 15,400 -1,971 Descending FlightAware ADS-B
Sat 10:29:31 PM 39.9650 -4.3060 70° East 408 470 14,200 -1,971 Descending FlightAware ADS-B
Sat 10:30:06 PM 39.9860 -4.2240 71° East 400 460 13,100 -1,714 Descending FlightAware ADS-B
Sat 10:30:41 PM 40.0070 -4.1460 71° East 386 444 12,200 -1,870 Descending FlightAware ADS-B
Sat 10:31:23 PM 40.0310 -4.0540 71° East 383 441 10,700 -2,000 Descending FlightAware ADS-B
Sat 10:31:53 PM 40.0480 -3.9930 70° East 382 440 9,800 -1,200 Descending FlightAware ADS-B
Sat 10:32:18 PM 40.0630 -3.9340 72° East 362 417 9,600 -667 Descending FlightAware ADS-B
Sat 10:32:38 PM 40.0740 -3.8930 71° East 351 404 9,300 -667 Descending FlightAware ADS-B
Sat 10:33:03 PM 40.0870 -3.8440 71° East 329 379 9,100 -391 Descending FlightAware ADS-B
Sat 10:33:24 PM 40.0960 -3.8060 73° East 321 369 9,000 -450 Descending FlightAware ADS-B
Sat 10:33:43 PM 40.1050 -3.7720 71° East 309 356 8,800 -769 Descending FlightAware ADS-B
Sat 10:34:03 PM 40.1150 -3.7360 70° East 305 351 8,500 -1,043 Descending FlightAware ADS-B
Sat 10:34:29 PM 40.1270 -3.6920 70° East 304 350 8,000 -1,167 Descending FlightAware ADS-B
Sat 10:34:39 PM 40.1310 -3.6750 73° East 300 345 7,800 -1,034 Descending FlightAware ADS-B
Sat 10:34:58 PM 40.1390 -3.6410 73° East 297 342 7,500 -1,227 Descending FlightAware ADS-B
Sat 10:35:23 PM 40.1510 -3.5980 70° East 297 342 6,900 -1,174 Descending FlightAware ADS-B
Sat 10:35:44 PM 40.1600 -3.5630 71° East 296 341 6,600 -900 Descending FlightAware ADS-B
Sat 10:36:03 PM 40.1680 -3.5310 72° East 287 330 6,300 -1,077 Descending FlightAware ADS-B
Sat 10:36:23 PM 40.1760 -3.4980 72° East 289 333 5,900 -1,200 Descending FlightAware ADS-B
Sat 10:36:48 PM 40.1870 -3.4570 71° East 288 331 5,400 -1,067 Descending FlightAware ADS-B
Sat 10:37:08 PM 40.1950 -3.4270 71° East 284 327 5,100 -600 Descending FlightAware ADS-B
Sat 10:37:28 PM 40.2090 -3.3940 61° Northeast 268 308 5,000 -480 Descending FlightAware ADS-B
Sat 10:37:33 PM 40.2130 -3.3880 49° Northeast 273 314 4,900 -600 Descending FlightAware ADS-B
Sat 10:37:38 PM 40.2190 -3.3850 21° North 266 306 4,900 -400 Level FlightAware ADS-B
Sat 10:37:48 PM 40.2320 -3.3820 10° North 271 312 4,800 -400 Descending FlightAware ADS-B
Sat 10:37:53 PM 40.2380 -3.3830 353° North 262 302 4,800 -375 Level FlightAware ADS-B
Sat 10:38:04 PM 40.2490 -3.3900 334° Northwest 259 298 4,700 -286 Descending FlightAware ADS-B
Sat 10:38:14 PM 40.2600 -3.3980 331° Northwest 253 291 4,700 -615 Level FlightAware ADS-B
Sat 10:38:43 PM 40.2890 -3.4200 330° Northwest 239 275 4,300 -778 Descending FlightAware ADS-B
Sat 10:39:08 PM 40.3100 -3.4340 333° Northwest 230 265 4,000 -732 Descending FlightAware ADS-B
Sat 10:39:24 PM 40.3270 -3.4440 336° Northwest 216 249 3,800 -300 Descending FlightAware ADS-B
Sat 10:39:48 PM 40.3470 -3.4540 339° North 197 227 3,800  Level FlightAware ADS-B
Sat 10:40:08 PM 40.3640 -3.4640 336° Northwest 190 219 3,800 -293 Level FlightAware ADS-B
Sat 10:40:29 PM 40.3820 -3.4750 335° Northwest 175 201 3,600 -600 Descending FlightAware ADS-B
Sat 10:40:48 PM 40.3950 -3.4820 338° Northwest 178 205 3,400 -621 Descending FlightAware ADS-B
Sat 10:40:58 PM 40.4030 -3.4860 339° North 172 198 3,300 -480 Descending FlightAware ADS-B
Sat 10:41:13 PM 40.4130 -3.4890 347° North 164 189 3,200 -686 Descending FlightAware ADS-B
Sat 10:41:33 PM 40.4280 -3.4940 346° North 138 159 2,900 -750 Descending FlightAware ADS-B
Sat 10:41:53 PM 40.4380 -3.5010 332° Northwest 139 160 2,700 -800 Descending FlightAware ADS-B
Sat 10:42:18 PM 40.4520 -3.5150 323° Northwest 130 150 2,300 -750 Descending FlightAware ADS-B
Sat 10:42:33 PM 40.4580 -3.5210 323° Northwest 142 163 2,200 -750 Descending FlightAware ADS-B
Sat 10:42:58 PM 40.4730 -3.5360 323° Northwest 141 162 1,800 -960 Descending FlightAware ADS-B
Sat 10:43:22 PM 40.4840 -3.5470 323° Northwest 98 113 -4,500 Descending FlightAware ADS-B

Login

Don't have an account? Register now (free) for customized features, flight alerts, and more!